Terminal Aerodrome Forecast
Issued by NWS

Home | Current Version | Previous Version | Text Only | Print | Product List | Glossary On
Versions: 1 2 3 4 5 6 7 8 9 10 11 12 13 14 15 16 17 18 19 20 21 22 23 24 25 26 27 28 29 30 31 32 33
000
FTPQ31 PGUM 242300
TAFPQ
TAF

PTRO 242323Z 2500/2524 29009KT P6SM VCSH SCT016 SCT030 BKN120
      TEMPO 2501/2505 VRB12G18KT 3SM TSRA SCT016CB OVC030
     FM250600 26011KT 6SM SHRA BKN015 OVC030
     FM251700 24012G20KT 5SM +SHRA BKN015 OVC030=

USA.gov is the U.S. government's official web portal to all federal, state and local government web resources and services.